Time;durP1;ratioP1;P1;durP2;ratioP2;P2;SDS_P1;SDS_P2;PMS_P1;PMS_P2;Temp;Humidity;BMP_temperature;BMP_pressure;BME280_temperature;BME280_humidity;BME280_pressure;Samples;Min_cycle;Max_cycle;Signal;HPM_P1;HPM_P2
2021/04/03 00:00:47;;;;;;;13.85;7.38;;;;;;;10.56;66.64;93540.66;5090812;28;20024;-76
2021/04/03 00:03:15;;;;;;;13.38;7.88;;;;;;;10.59;66.74;93534.66;5090517;28;20412;-77
2021/04/03 00:05:41;;;;;;;13.95;7.90;;;;;;;10.60;67.04;93522.91;5089798;28;20030;-77
2021/04/03 00:08:07;;;;;;;15.68;8.63;;;;;;;10.60;67.35;93520.25;5090673;28;20490;-77
2021/04/03 00:10:53;;;;;;;13.43;8.68;;;;;;;10.67;67.63;93510.97;5090116;28;20110;-77
2021/04/03 00:13:22;;;;;;;12.57;8.68;;;;;;;10.73;67.25;93504.34;5090108;28;20030;-77
2021/04/03 00:15:48;;;;;;;16.65;10.60;;;;;;;10.79;66.80;93492.41;5089818;28;20028;-77
2021/04/03 00:18:15;;;;;;;16.75;9.60;;;;;;;10.80;66.56;93488.63;5089980;28;20032;-77
2021/04/03 00:20:40;;;;;;;16.98;7.97;;;;;;;10.86;66.36;93482.00;5089887;28;20445;-77
2021/04/03 00:23:06;;;;;;;15.18;6.97;;;;;;;10.89;66.06;93476.03;5090022;28;20020;-77
2021/04/03 00:25:33;;;;;;;14.13;6.22;;;;;;;10.90;65.61;93474.91;5091313;28;20081;-76
2021/04/03 00:27:58;;;;;;;11.73;6.60;;;;;;;10.90;65.35;93482.91;5089737;28;20096;-76
2021/04/03 00:30:24;;;;;;;18.08;6.63;;;;;;;10.92;65.54;93480.69;5090738;28;20024;-77
2021/04/03 00:33:01;;;;;;;14.88;7.38;;;;;;;10.85;65.56;93488.44;5089832;28;20487;-77
2021/04/03 00:35:29;;;;;;;11.23;6.43;;;;;;;10.79;65.33;93492.41;5090491;28;20131;-77
2021/04/03 00:37:56;;;;;;;19.23;8.45;;;;;;;10.72;65.38;93484.13;5090508;28;20028;-77
2021/04/03 00:40:25;;;;;;;14.45;6.05;;;;;;;10.69;65.67;93482.09;5090541;28;20062;-77
2021/04/03 00:42:51;;;;;;;12.88;5.65;;;;;;;10.61;65.16;93479.16;5090462;28;20024;-78
2021/04/03 00:45:18;;;;;;;14.88;6.45;;;;;;;10.55;65.24;93488.44;5090481;28;20510;-77
2021/04/03 00:47:44;;;;;;;12.57;6.18;;;;;;;10.48;65.50;93484.72;5089912;28;20027;-77
2021/04/03 00:50:13;;;;;;;12.55;6.45;;;;;;;10.47;65.90;93488.50;5089548;28;20395;-77
2021/04/03 00:52:38;;;;;;;14.60;8.63;;;;;;;10.42;66.70;93486.75;5089554;28;20064;-76
2021/04/03 00:55:07;;;;;;;18.98;10.38;;;;;;;10.24;69.05;93484.16;5089206;28;20059;-78
2021/04/03 00:57:33;;;;;;;27.85;12.88;;;;;;;10.02;71.14;93481.72;5089613;28;20089;-77
2021/04/03 01:00:00;;;;;;;19.33;12.52;;;;;;;9.90;72.37;93484.28;5089633;28;20493;-78
2021/04/03 01:02:25;;;;;;;19.70;12.23;;;;;;;9.90;72.49;93490.38;5091054;28;20092;-78
2021/04/03 01:04:50;;;;;;;25.75;13.88;;;;;;;9.83;72.83;93487.41;5089306;28;20036;-78
2021/04/03 01:07:16;;;;;;;24.00;14.88;;;;;;;9.80;73.19;93485.38;5089658;28;20044;-78
2021/04/03 01:09:43;;;;;;;25.63;13.85;;;;;;;9.84;73.50;93484.44;5091855;28;20028;-77
2021/04/03 01:12:30;;;;;;;23.83;14.10;;;;;;;9.86;73.10;93472.69;5088988;28;20168;-76
2021/04/03 01:15:20;;;;;;;26.95;14.30;;;;;;;9.93;72.36;93472.97;5090251;28;20024;-76
2021/04/03 01:17:46;;;;;;;18.80;11.93;;;;;;;9.98;71.96;93462.16;5089140;28;20032;-76
2021/04/03 01:20:54;;;;;;;21.73;12.20;;;;;;;10.03;71.81;93469.97;5089079;28;20031;-76
2021/04/03 01:23:45;;;;;;;18.27;12.18;;;;;;;10.10;71.32;93472.94;5074758;28;20495;-76
2021/04/03 01:26:25;;;;;;;24.17;12.65;;;;;;;10.13;70.53;93472.28;5088852;28;20034;-76
2021/04/03 01:29:08;;;;;;;31.35;14.32;;;;;;;10.12;70.30;93457.41;5089165;28;20020;-76
2021/04/03 01:31:35;;;;;;;48.45;16.67;;;;;;;10.13;70.48;93466.97;5090449;28;20036;-76
2021/04/03 01:34:01;;;;;;;40.13;15.20;;;;;;;10.20;70.26;93467.25;5088887;28;20028;-76
2021/04/03 01:36:31;;;;;;;28.33;13.05;;;;;;;10.20;70.10;93461.16;5088608;28;20082;-76
2021/04/03 01:38:58;;;;;;;26.05;12.30;;;;;;;10.22;69.70;93456.28;5088689;28;20056;-76
2021/04/03 01:41:28;;;;;;;24.20;12.35;;;;;;;10.20;69.96;93453.94;5088673;28;20026;-76
2021/04/03 01:43:55;;;;;;;19.73;11.25;;;;;;;10.22;69.88;93450.97;5088589;28;20024;-76
2021/04/03 01:46:22;;;;;;;21.45;11.25;;;;;;;10.22;69.44;93449.06;5089954;28;20062;-76
2021/04/03 01:48:50;;;;;;;28.77;13.30;;;;;;;10.22;69.20;93450.97;5088810;28;20096;-75
2021/04/03 01:51:17;;;;;;;21.67;11.98;;;;;;;10.21;69.46;93449.38;5088673;28;20028;-76
2021/04/03 01:53:44;;;;;;;19.70;11.38;;;;;;;10.19;69.58;93447.03;5089995;28;20703;-76
2021/04/03 01:56:12;;;;;;;20.58;11.55;;;;;;;10.21;69.34;93447.50;5088147;28;20103;-76
2021/04/03 01:58:37;;;;;;;23.17;10.73;;;;;;;10.21;68.92;93441.41;5089770;28;20108;-76
2021/04/03 02:01:04;;;;;;;21.75;10.98;;;;;;;10.24;69.04;93438.88;5088526;28;20028;-76
2021/04/03 02:03:33;;;;;;;13.43;8.40;;;;;;;10.29;68.38;93442.47;5088214;28;20028;-75
2021/04/03 02:06:01;;;;;;;17.23;8.93;;;;;;;10.25;68.01;93437.75;5088589;28;20113;-76
2021/04/03 02:08:28;;;;;;;14.65;9.23;;;;;;;10.23;68.00;93447.19;5088361;28;20169;-76
2021/04/03 02:10:53;;;;;;;16.85;10.80;;;;;;;10.24;67.76;93438.88;5085715;28;20527;-76
2021/04/03 02:13:20;;;;;;;26.27;13.23;;;;;;;10.23;68.00;93439.97;5088299;28;20142;-76
2021/04/03 02:15:47;;;;;;;32.60;14.63;;;;;;;10.16;68.29;93434.38;5088493;28;20065;-77
2021/04/03 02:18:14;;;;;;;32.20;14.88;;;;;;;10.12;68.34;93433.44;5088666;28;20024;-78
2021/04/03 02:20:40;;;;;;;43.38;16.48;;;;;;;10.06;68.60;93425.97;5088686;28;20419;-77
2021/04/03 02:23:06;;;;;;;30.00;12.65;;;;;;;10.06;68.48;93433.97;5090114;28;20172;-80
2021/04/03 02:25:31;;;;;;;18.40;10.73;;;;;;;9.94;68.55;93431.97;5088534;28;20027;-80
2021/04/03 02:27:57;;;;;;;23.08;10.30;;;;;;;9.91;68.35;93435.25;5089752;28;20027;-80
2021/04/03 02:30:23;;;;;;;20.33;10.57;;;;;;;9.91;68.41;93422.75;5088516;28;20035;-80
2021/04/03 02:32:54;;;;;;;18.50;10.73;;;;;;;9.88;68.02;93427.91;5088674;28;20024;-80
2021/04/03 02:35:21;;;;;;;16.25;9.82;;;;;;;9.83;67.98;93426.97;5088289;28;20412;-80
2021/04/03 02:37:48;;;;;;;24.33;11.50;;;;;;;9.76;68.10;93421.34;5088479;28;20038;-80
2021/04/03 02:40:17;;;;;;;18.88;10.98;;;;;;;9.72;68.29;93431.06;5088493;28;20024;-79
2021/04/03 02:42:57;;;;;;;29.17;14.07;;;;;;;9.68;68.28;93422.16;5088255;28;20035;-79
2021/04/03 02:45:25;;;;;;;30.05;15.90;;;;;;;9.60;68.61;93413.09;5088192;28;20510;-79
2021/04/03 02:47:57;;;;;;;29.27;14.75;;;;;;;9.60;68.61;93418.41;5088369;28;20039;-79
2021/04/03 02:50:25;;;;;;;23.25;14.15;;;;;;;9.59;68.64;93416.88;5088155;28;20219;-78
2021/04/03 02:52:53;;;;;;;23.27;12.80;;;;;;;9.56;68.86;93404.19;5088430;28;20020;-79
2021/04/03 02:55:21;;;;;;;22.10;11.55;;;;;;;9.57;68.80;93410.31;5089876;28;20032;-80
2021/04/03 02:57:49;;;;;;;22.23;11.95;;;;;;;9.54;68.78;93409.03;5091721;28;20043;-80
2021/04/03 03:00:17;;;;;;;22.63;11.80;;;;;;;9.52;68.83;93405.16;5092062;28;20028;-80
2021/04/03 03:02:44;;;;;;;31.25;12.30;;;;;;;9.42;68.60;93404.41;5092011;28;20035;-80
2021/04/03 03:05:11;;;;;;;27.25;13.02;;;;;;;9.44;68.86;93399.56;5093573;28;20031;-80
2021/04/03 03:07:42;;;;;;;26.33;12.90;;;;;;;9.46;69.10;93395.78;5093202;28;20050;-80
2021/04/03 03:10:08;;;;;;;27.45;12.07;;;;;;;9.46;69.03;93393.88;5092591;28;20032;-80
2021/04/03 03:12:37;;;;;;;31.05;12.52;;;;;;;9.43;68.85;93400.63;5093072;28;20101;-80
2021/04/03 03:15:04;;;;;;;19.02;11.52;;;;;;;9.45;69.05;93400.31;5092281;28;20394;-80
2021/04/03 03:17:29;;;;;;;23.33;13.23;;;;;;;9.50;68.98;93396.69;5091761;28;20107;-80
2021/04/03 03:19:55;;;;;;;25.98;11.90;;;;;;;9.42;68.99;93399.09;5091699;28;20067;-80
2021/04/03 03:22:21;;;;;;;27.17;14.52;;;;;;;9.41;69.37;93388.75;5092992;28;20019;-80
2021/04/03 03:24:47;;;;;;;28.67;14.93;;;;;;;9.42;69.76;93387.63;5099409;28;20101;-79
2021/04/03 03:27:13;;;;;;;30.05;17.05;;;;;;;9.43;69.75;93386.56;5097071;28;20028;-79
2021/04/03 03:29:40;;;;;;;31.58;17.38;;;;;;;9.39;69.81;93389.06;5095718;28;20456;-80
2021/04/03 03:32:06;;;;;;;36.58;17.58;;;;;;;9.38;69.97;93381.38;5091482;28;20035;-80
2021/04/03 03:34:31;;;;;;;30.73;17.55;;;;;;;9.38;69.83;93392.03;5097603;28;20149;-79
2021/04/03 03:36:57;;;;;;;34.38;18.45;;;;;;;9.39;70.23;93397.03;5090718;28;20028;-78
2021/04/03 03:39:24;;;;;;;30.55;17.40;;;;;;;9.30;70.10;93396.28;5090793;28;20031;-78
2021/04/03 03:41:55;;;;;;;32.67;17.55;;;;;;;9.31;70.01;93395.19;5090422;28;20035;-79
2021/04/03 03:44:21;;;;;;;43.50;18.90;;;;;;;9.34;69.74;93394.56;5090661;28;20490;-79
2021/04/03 03:46:46;;;;;;;37.90;20.10;;;;;;;9.36;69.69;93388.91;5090266;28;20716;-78
2021/04/03 03:49:12;;;;;;;37.25;20.08;;;;;;;9.29;69.69;93397.38;5091904;28;20032;-78
2021/04/03 03:51:37;;;;;;;34.97;19.38;;;;;;;9.29;69.96;93391.28;5090466;28;20028;-79
2021/04/03 03:54:03;;;;;;;36.80;18.23;;;;;;;9.23;70.29;93391.44;5090173;28;20035;-79
2021/04/03 03:56:28;;;;;;;35.05;19.05;;;;;;;9.24;70.17;93392.22;5090517;28;20036;-79
2021/04/03 03:58:54;;;;;;;38.03;20.92;;;;;;;9.22;70.16;93397.09;5091864;28;20050;-79
2021/04/03 04:01:20;;;;;;;34.13;18.85;;;;;;;9.20;70.46;93394.75;5089443;28;20036;-79
2021/04/03 04:03:45;;;;;;;35.13;19.25;;;;;;;9.20;70.12;93401.94;5091684;28;20031;-81
2021/04/03 04:06:11;;;;;;;42.25;20.40;;;;;;;9.13;70.24;93397.06;5090073;28;20478;-79
2021/04/03 04:08:36;;;;;;;36.00;19.35;;;;;;;9.12;70.21;93397.38;5090369;28;20028;-79
2021/04/03 04:11:02;;;;;;;37.58;19.88;;;;;;;9.16;70.21;93398.31;5090311;28;20028;-80
2021/04/03 04:13:27;;;;;;;33.92;19.48;;;;;;;9.15;70.06;93396.78;5089794;28;20405;-80
2021/04/03 04:15:53;;;;;;;29.45;18.52;;;;;;;9.17;70.15;93390.03;5089881;28;20051;-80
2021/04/03 04:18:19;;;;;;;31.58;18.52;;;;;;;9.12;70.25;93395.53;5090076;28;20048;-80
2021/04/03 04:20:45;;;;;;;31.83;18.08;;;;;;;9.14;70.18;93392.53;5090228;28;20020;-79
2021/04/03 04:23:10;;;;;;;31.80;16.73;;;;;;;9.18;70.20;93399.59;5090045;28;20043;-79
2021/04/03 04:25:36;;;;;;;41.65;18.15;;;;;;;9.23;69.92;93401.28;5089172;28;20359;-78
2021/04/03 04:28:01;;;;;;;37.53;17.23;;;;;;;9.24;70.19;93395.66;5089503;28;20024;-78
2021/04/03 04:30:29;;;;;;;27.98;15.02;;;;;;;9.26;70.06;93390.03;5090786;28;20039;-77
2021/04/03 04:32:55;;;;;;;32.47;15.43;;;;;;;9.31;69.97;93394.41;5091196;28;20024;-77
2021/04/03 04:35:20;;;;;;;29.45;16.27;;;;;;;9.34;69.92;93396.41;5089473;28;20051;-78
2021/04/03 04:37:46;;;;;;;39.92;17.02;;;;;;;9.39;69.85;93399.69;5089728;28;20063;-78
2021/04/03 04:40:13;;;;;;;34.35;18.33;;;;;;;9.42;69.72;93391.09;5089499;28;20077;-78
2021/04/03 04:42:40;;;;;;;28.85;15.30;;;;;;;9.49;69.45;93403.91;5090852;28;20031;-78
2021/04/03 04:45:07;;;;;;;33.83;15.75;;;;;;;9.51;69.54;93400.94;5089723;28;20016;-78
2021/04/03 04:47:33;;;;;;;35.60;15.63;;;;;;;9.59;69.72;93403.56;5090529;28;20038;-77
2021/04/03 04:49:58;;;;;;;27.20;14.85;;;;;;;9.53;70.05;93409.38;5089305;28;20394;-77
2021/04/03 04:52:24;;;;;;;30.70;15.43;;;;;;;9.62;69.82;93404.81;5088990;28;20028;-77
2021/04/03 04:54:49;;;;;;;27.38;14.52;;;;;;;9.68;69.66;93408.09;5089232;28;20101;-77
2021/04/03 04:57:15;;;;;;;28.27;15.55;;;;;;;9.74;69.90;93407.59;5088930;28;20479;-78
2021/04/03 04:59:40;;;;;;;33.78;16.48;;;;;;;9.67;69.75;93407.31;5090237;28;20032;-78
2021/04/03 05:02:06;;;;;;;26.75;15.68;;;;;;;9.76;69.49;93409.94;5089345;28;20024;-79
2021/04/03 05:04:31;;;;;;;30.60;16.90;;;;;;;9.76;69.62;93416.03;5089211;28;20032;-76
2021/04/03 05:06:57;;;;;;;40.17;21.42;;;;;;;9.73;69.12;93416.69;5089156;28;20024;-76
2021/04/03 05:09:22;;;;;;;32.47;20.08;;;;;;;9.69;69.30;93415.75;5088999;28;20406;-77
2021/04/03 05:11:47;;;;;;;34.88;19.63;;;;;;;9.68;69.45;93418.72;5088928;28;20039;-78
2021/04/03 05:14:13;;;;;;;33.58;19.67;;;;;;;9.63;69.61;93412.47;5090219;28;20016;-79
2021/04/03 05:16:39;;;;;;;26.92;17.02;;;;;;;9.57;69.96;93407.66;5088718;28;20391;-74
2021/04/03 05:19:04;;;;;;;30.30;18.02;;;;;;;9.56;69.94;93411.41;5088528;28;20035;-76
2021/04/03 05:21:29;;;;;;;30.92;16.75;;;;;;;9.54;70.40;93397.63;5089010;28;20559;-77
2021/04/03 05:23:55;;;;;;;36.53;19.00;;;;;;;9.58;70.52;93404.66;5090099;28;20035;-77
2021/04/03 05:26:20;;;;;;;32.10;18.77;;;;;;;9.64;70.37;93400.72;5088524;28;20477;-78
2021/04/03 05:28:46;;;;;;;32.40;18.05;;;;;;;9.68;70.51;93392.91;5088449;28;20032;-77
2021/04/03 05:31:12;;;;;;;34.17;17.42;;;;;;;9.73;70.63;93392.72;5087289;28;20027;-77
2021/04/03 05:33:37;;;;;;;29.52;16.45;;;;;;;9.76;70.77;93405.38;5088893;28;20452;-77
2021/04/03 05:36:03;;;;;;;35.13;19.75;;;;;;;9.80;71.06;93406.31;5089531;28;20054;-77
2021/04/03 05:38:28;;;;;;;37.35;19.05;;;;;;;9.87;71.21;93405.84;5090049;28;20023;-77
2021/04/03 05:40:54;;;;;;;38.22;20.95;;;;;;;9.90;71.11;93412.41;5088534;28;20019;-77
2021/04/03 05:43:20;;;;;;;56.45;30.90;;;;;;;9.96;71.34;93409.22;5087114;28;20206;-78
2021/04/03 05:45:49;;;;;;;32.33;19.23;;;;;;;9.95;71.37;93407.69;5088711;28;20030;-77
2021/04/03 05:48:14;;;;;;;36.95;20.17;;;;;;;9.93;71.33;93398.44;5088624;28;20061;-77
2021/04/03 05:50:43;;;;;;;33.15;20.52;;;;;;;9.94;71.47;93416.00;5089931;28;20024;-77
2021/04/03 05:53:08;;;;;;;30.02;19.13;;;;;;;9.93;71.75;93419.72;5088556;28;20063;-72
2021/04/03 05:55:34;;;;;;;39.70;20.55;;;;;;;9.87;71.84;93411.16;5088379;28;20526;-74
2021/04/03 05:58:00;;;;;;;39.55;21.35;;;;;;;9.88;72.28;93418.03;5089600;28;20107;-73
2021/04/03 06:00:25;;;;;;;38.78;21.05;;;;;;;10.12;72.11;93408.72;5088442;28;20402;-73
2021/04/03 06:02:51;;;;;;;39.33;21.90;;;;;;;10.22;71.88;93406.47;5088352;28;20030;-73
2021/04/03 06:05:17;;;;;;;38.97;22.83;;;;;;;10.31;70.76;93403.00;5088357;28;20526;-73
2021/04/03 06:07:42;;;;;;;34.65;20.35;;;;;;;10.44;70.66;93409.97;5085635;28;20032;-73
2021/04/03 06:10:10;;;;;;;30.65;19.63;;;;;;;10.53;70.50;93407.25;5088363;28;20024;-73
2021/04/03 06:12:39;;;;;;;37.55;20.75;;;;;;;10.61;70.37;93422.41;5088349;28;20097;-66
2021/04/03 06:15:05;;;;;;;31.20;20.58;;;;;;;10.75;69.89;93414.19;5088534;28;20483;-66
2021/04/03 06:17:31;;;;;;;29.65;18.33;;;;;;;10.89;68.98;93412.03;5087924;28;20085;-66
2021/04/03 06:19:58;;;;;;;26.73;17.90;;;;;;;11.03;68.64;93417.09;5089658;28;20032;-66
2021/04/03 06:22:23;;;;;;;32.40;17.95;;;;;;;11.26;67.62;93412.19;5089124;28;20024;-66
2021/04/03 06:25:03;;;;;;;29.95;18.55;;;;;;;11.48;67.42;93412.94;5087889;28;20042;-66
2021/04/03 06:27:28;;;;;;;33.15;16.73;;;;;;;11.61;67.21;93409.19;5088122;28;20032;-66
2021/04/03 06:29:56;;;;;;;26.23;12.27;;;;;;;11.69;65.40;93408.31;5089467;28;20032;-66
2021/04/03 06:32:31;;;;;;;25.00;12.68;;;;;;;11.82;65.74;93409.91;5091667;28;20375;-66
2021/04/03 06:34:57;;;;;;;23.90;11.43;;;;;;;12.00;65.10;93404.41;5093146;28;20036;-67
2021/04/03 06:37:26;;;;;;;30.13;12.80;;;;;;;12.15;64.48;93413.63;5093380;28;20058;-66
2021/04/03 06:39:55;;;;;;;19.13;11.13;;;;;;;12.32;63.31;93407.31;5092132;28;20047;-66
2021/04/03 06:42:42;;;;;;;21.27;11.10;;;;;;;12.48;62.74;93408.19;5091901;28;20036;-67
2021/04/03 06:45:17;;;;;;;21.58;10.77;;;;;;;12.61;61.87;93403.59;5093569;28;20364;-67
2021/04/03 06:47:45;;;;;;;22.13;11.65;;;;;;;12.70;61.91;93398.13;5093452;28;20024;-66
2021/04/03 06:50:15;;;;;;;19.92;10.10;;;;;;;12.81;61.42;93397.34;5091852;28;20036;-66
2021/04/03 06:52:42;;;;;;;26.75;11.73;;;;;;;12.95;61.19;93406.91;5091584;28;20554;-65
2021/04/03 06:55:10;;;;;;;25.05;10.35;;;;;;;13.05;60.49;93401.06;5093051;28;20032;-65
2021/04/03 06:57:37;;;;;;;21.90;10.55;;;;;;;12.93;60.13;93404.56;5091682;28;20479;-65
2021/04/03 07:00:04;;;;;;;25.30;10.73;;;;;;;12.99;60.24;93392.50;5091517;28;20554;-69
2021/04/03 07:02:31;;;;;;;22.83;11.35;;;;;;;13.13;60.84;93399.38;5091279;28;20086;-69
2021/04/03 07:04:59;;;;;;;20.90;10.48;;;;;;;13.27;59.84;93396.31;5091099;28;20039;-69
2021/04/03 07:07:28;;;;;;;19.02;11.00;;;;;;;13.39;59.82;93390.91;5091321;28;20016;-69
2021/04/03 07:09:55;;;;;;;17.70;10.35;;;;;;;13.52;59.88;93395.13;5092297;28;20479;-69
2021/04/03 07:12:21;;;;;;;18.95;10.90;;;;;;;13.66;58.72;93400.06;5092570;28;20094;-72
2021/04/03 07:14:47;;;;;;;18.02;10.73;;;;;;;13.69;58.05;93393.25;5090930;28;20107;-71
2021/04/03 07:17:14;;;;;;;19.38;11.55;;;;;;;13.66;58.53;93392.03;5089286;28;20111;-72
2021/04/03 07:19:42;;;;;;;20.42;12.13;;;;;;;13.66;59.08;93389.34;5090736;28;20027;-72
2021/04/03 07:22:08;;;;;;;19.50;11.65;;;;;;;13.63;58.59;93395.38;5090424;28;20093;-73
2021/04/03 07:45:52;;;;;;;25.20;14.82;;;;;;;13.98;58.15;93368.72;5107876;27;20343;-73
2021/04/03 07:48:42;;;;;;;26.30;14.45;;;;;;;13.92;58.46;93369.31;5086509;28;20101;-72
2021/04/03 07:51:10;;;;;;;25.73;14.02;;;;;;;13.91;58.49;93362.41;5070007;28;20024;-72
2021/04/03 07:53:41;;;;;;;21.42;12.48;;;;;;;13.93;58.30;93368.97;5068326;28;20484;-72
2021/04/03 07:56:09;;;;;;;22.48;13.25;;;;;;;14.01;58.30;93367.25;5103439;28;20114;-71
2021/04/03 07:58:48;;;;;;;25.58;13.02;;;;;;;14.06;57.96;93369.66;5094728;28;20491;-73
2021/04/03 08:01:15;;;;;;;19.33;11.98;;;;;;;14.09;57.30;93371.66;5080750;28;20016;-71
2021/04/03 08:03:41;;;;;;;18.95;12.90;;;;;;;14.17;57.50;93370.72;5086465;28;20013;-71
2021/04/03 08:06:09;;;;;;;31.52;13.30;;;;;;;14.16;57.82;93358.41;5070964;28;20532;-71
2021/04/03 08:08:40;;;;;;;27.48;14.25;;;;;;;14.27;58.32;93373.97;5068200;28;20028;-72
2021/04/03 08:11:15;;;;;;;26.15;13.90;;;;;;;14.33;57.76;93367.22;5106087;28;20485;-71
2021/04/03 08:13:47;;;;;;;24.67;13.40;;;;;;;14.37;57.52;93357.34;5080477;28;20073;-71
2021/04/03 08:16:14;;;;;;;24.98;13.25;;;;;;;14.39;57.34;93355.09;5097819;28;20020;-71
2021/04/03 08:18:42;;;;;;;22.98;13.80;;;;;;;14.47;56.72;93372.13;5106285;28;20028;-72
2021/04/03 08:21:08;;;;;;;19.50;12.75;;;;;;;14.49;56.99;93351.09;5101784;28;20035;-71
2021/04/03 08:23:41;;;;;;;24.85;13.85;;;;;;;14.49;57.17;93362.63;5086141;28;20021;-71
2021/04/03 08:26:20;;;;;;;35.45;13.55;;;;;;;14.60;56.33;93368.25;5087585;28;20362;-72
2021/04/03 08:28:46;;;;;;;29.52;13.15;;;;;;;14.63;56.00;93365.66;5078095;28;20020;-71
2021/04/03 08:31:26;;;;;;;23.63;12.73;;;;;;;14.73;56.29;93363.53;5067461;28;20069;-71
2021/04/03 08:33:54;;;;;;;23.98;12.75;;;;;;;14.84;55.63;93368.00;5085495;28;20099;-71
2021/04/03 08:36:24;;;;;;;28.58;13.20;;;;;;;14.98;55.03;93354.13;5067703;28;20028;-68
2021/04/03 08:38:51;;;;;;;27.77;14.05;;;;;;;15.06;55.20;93346.97;5104801;28;20089;-69
2021/04/03 08:41:18;;;;;;;24.60;13.48;;;;;;;15.14;55.64;93353.25;5105844;28;20085;-70
2021/04/03 08:43:47;;;;;;;20.17;13.88;;;;;;;15.21;54.99;93351.50;5105647;28;20031;-71
2021/04/03 08:46:14;;;;;;;21.35;13.15;;;;;;;15.28;54.35;93350.84;5095284;28;20027;-71
2021/04/03 08:48:42;;;;;;;24.90;13.38;;;;;;;15.29;54.25;93347.03;5062083;28;20031;-71
2021/04/03 08:51:09;;;;;;;37.20;19.83;;;;;;;15.32;54.57;93334.81;5053725;28;20107;-71
2021/04/03 08:53:46;;;;;;;31.55;20.23;;;;;;;15.32;54.78;93338.25;5058927;28;20514;-70
2021/04/03 08:56:18;;;;;;;29.60;15.85;;;;;;;15.31;55.26;93323.28;5057926;28;20028;-70
2021/04/03 08:58:44;;;;;;;23.10;14.40;;;;;;;15.36;54.48;93320.31;5055303;28;20024;-70
2021/04/03 09:01:10;;;;;;;26.70;13.90;;;;;;;15.42;54.42;93318.88;5053431;28;20036;-70
2021/04/03 09:03:37;;;;;;;28.60;12.40;;;;;;;15.50;54.24;93314.41;5071546;28;20093;-70
2021/04/03 09:06:04;;;;;;;22.70;12.75;;;;;;;15.56;54.21;93306.84;5053674;28;20024;-70
2021/04/03 09:08:30;;;;;;;25.58;12.50;;;;;;;15.67;53.89;93310.47;5077292;28;20027;-70
2021/04/03 09:10:58;;;;;;;19.30;11.68;;;;;;;15.80;54.04;93286.94;5091852;28;20497;-70
2021/04/03 09:13:36;;;;;;;18.35;11.55;;;;;;;15.88;53.28;93298.59;5072369;28;20414;-70
2021/04/03 09:16:14;;;;;;;22.80;11.48;;;;;;;15.99;52.79;93292.22;5073479;28;20063;-70
2021/04/03 09:18:42;;;;;;;22.13;12.25;;;;;;;16.08;53.05;93283.13;5054390;28;20025;-70
2021/04/03 09:21:07;;;;;;;19.13;10.38;;;;;;;16.09;52.48;93285.47;5071399;28;20190;-71
2021/04/03 09:23:42;;;;;;;19.42;11.60;;;;;;;16.17;51.71;93292.50;5053421;28;20016;-70
2021/04/03 09:26:08;;;;;;;19.05;10.25;;;;;;;16.09;51.31;93284.69;5071483;28;20031;-70
2021/04/03 09:28:39;;;;;;;13.60;10.13;;;;;;;16.16;51.89;93299.03;5086860;28;20025;-70
2021/04/03 09:31:07;;;;;;;21.13;10.02;;;;;;;16.29;51.07;93298.81;5053187;28;20020;-71
2021/04/03 09:33:47;;;;;;;14.70;9.25;;;;;;;16.29;49.88;93280.00;5070983;28;20036;-72
2021/04/03 09:36:17;;;;;;;17.27;9.55;;;;;;;16.48;49.79;93279.09;5071033;28;20013;-70
2021/04/03 09:38:44;;;;;;;21.90;10.70;;;;;;;16.61;50.38;93267.75;5070344;28;20036;-70
2021/04/03 09:41:33;;;;;;;15.50;9.02;;;;;;;16.84;49.42;93264.22;5052067;28;20175;-70
2021/04/03 09:43:59;;;;;;;18.95;10.27;;;;;;;17.09;48.80;93261.78;5060483;28;20047;-72
2021/04/03 09:46:24;;;;;;;20.65;9.40;;;;;;;17.26;47.98;93257.75;5052474;28;20495;-71
2021/04/03 09:48:50;;;;;;;22.65;9.25;;;;;;;17.36;48.11;93250.91;5053485;28;20521;-71
2021/04/03 09:51:15;;;;;;;16.33;8.48;;;;;;;17.51;46.85;93247.22;5052063;28;20027;-72
2021/04/03 09:53:41;;;;;;;17.83;7.93;;;;;;;17.72;45.35;93240.44;5075754;28;20024;-72
2021/04/03 09:56:06;;;;;;;18.30;8.18;;;;;;;17.96;45.81;93231.03;5071540;28;20028;-72
2021/04/03 09:58:32;;;;;;;20.27;9.10;;;;;;;18.14;45.04;93231.94;5070015;28;20042;-71
2021/04/03 10:00:58;;;;;;;13.52;7.88;;;;;;;18.17;44.60;93236.56;5088930;28;20035;-69
2021/04/03 10:03:24;;;;;;;17.58;7.30;;;;;;;18.25;44.15;93240.84;5071251;28;20020;-71
2021/04/03 10:05:49;;;;;;;13.90;7.57;;;;;;;18.31;42.24;93238.56;5084111;28;20399;-77
2021/04/03 10:08:15;;;;;;;18.60;7.82;;;;;;;18.33;42.87;93230.09;5073158;28;20028;-70
2021/04/03 10:10:41;;;;;;;20.17;7.55;;;;;;;18.47;43.19;93226.72;5076086;28;20040;-69
2021/04/03 10:13:07;;;;;;;20.95;7.75;;;;;;;18.53;43.30;93217.88;5052527;28;20036;-72
2021/04/03 10:15:34;;;;;;;12.30;6.85;;;;;;;18.68;42.39;93215.22;5071427;28;20042;-78
2021/04/03 10:17:59;;;;;;;17.75;7.25;;;;;;;18.80;42.22;93209.53;5055631;28;20441;-78
2021/04/03 10:20:25;;;;;;;11.80;6.88;;;;;;;18.90;41.31;93216.88;5051815;28;20067;-78
2021/04/03 10:22:50;;;;;;;14.30;6.10;;;;;;;18.80;40.70;93214.91;5055606;28;20057;-78
2021/04/03 10:25:16;;;;;;;16.00;6.97;;;;;;;18.67;40.79;93211.00;5071361;28;20028;-78
2021/04/03 10:27:41;;;;;;;17.25;7.30;;;;;;;18.58;40.58;93204.03;5051516;28;20035;-78
2021/04/03 10:30:08;;;;;;;13.55;7.82;;;;;;;18.60;41.71;93212.53;5070406;28;20628;-78
2021/04/03 10:32:34;;;;;;;13.30;7.38;;;;;;;18.48;41.59;93203.97;5052321;28;20103;-78
2021/04/03 10:34:59;;;;;;;22.15;7.10;;;;;;;18.42;41.68;93201.63;5052656;28;20115;-78
2021/04/03 10:37:26;;;;;;;11.10;6.63;;;;;;;18.42;42.52;93196.25;5075843;28;20097;-78
2021/04/03 10:39:51;;;;;;;17.00;7.88;;;;;;;18.43;42.61;93187.00;5052309;28;20025;-78
2021/04/03 10:42:17;;;;;;;17.15;7.32;;;;;;;18.31;42.49;93200.03;5069030;28;20375;-78
2021/04/03 10:44:42;;;;;;;12.35;8.23;;;;;;;18.36;43.43;93186.97;5073376;28;20491;-78
2021/04/03 10:47:08;;;;;;;23.25;9.35;;;;;;;18.28;45.08;93190.78;5072364;28;20449;-78
2021/04/03 10:49:34;;;;;;;17.95;8.85;;;;;;;18.18;45.72;93194.97;5061708;28;20032;-78
2021/04/03 10:51:59;;;;;;;23.88;9.38;;;;;;;18.01;44.97;93214.50;5052385;28;20032;-78
2021/04/03 10:54:25;;;;;;;18.30;9.20;;;;;;;17.71;46.23;93238.88;5068243;28;20055;-77
2021/04/03 10:56:51;;;;;;;35.45;16.60;;;;;;;16.80;53.03;93266.06;5087320;28;20029;-78
2021/04/03 10:59:16;;;;;;;28.00;16.55;;;;;;;15.77;58.81;93275.00;5066867;28;20032;-78
2021/04/03 11:01:43;;;;;;;25.63;16.58;;;;;;;15.19;59.87;93272.44;5063342;28;20032;-78
2021/04/03 11:04:08;;;;;;;24.77;16.70;;;;;;;14.50;63.03;93264.97;5064363;28;20017;-78
2021/04/03 11:06:34;;;;;;;32.13;16.40;;;;;;;14.17;64.42;93281.50;5061851;28;20020;-78
2021/04/03 11:08:59;;;;;;;33.63;16.08;;;;;;;13.84;65.80;93282.66;5089879;28;20028;-78
2021/04/03 11:39:51;;;;;;;24.42;11.98;;;;;;;12.72;69.81;93227.44;5128476;27;20370;-81
2021/04/03 11:42:16;;;;;;;24.58;11.70;;;;;;;12.82;71.24;93208.22;5127008;27;20413;-81
2021/04/03 11:44:42;;;;;;;26.08;13.00;;;;;;;12.94;70.85;93200.13;5128270;27;20130;-81
2021/04/03 11:47:07;;;;;;;16.40;10.57;;;;;;;13.02;69.67;93191.16;5127225;27;20409;-81
2021/04/03 11:49:33;;;;;;;13.82;9.48;;;;;;;13.14;68.12;93192.22;5127140;27;20157;-81
2021/04/03 11:51:58;;;;;;;21.15;10.88;;;;;;;13.20;67.34;93188.94;5126873;27;20049;-81
2021/04/03 11:54:23;;;;;;;22.58;13.70;;;;;;;13.30;67.98;93195.72;5126847;27;20023;-81
2021/04/03 11:56:49;;;;;;;28.38;14.35;;;;;;;13.38;68.22;93193.97;5126582;27;20019;-81
2021/04/03 11:59:14;;;;;;;23.73;13.40;;;;;;;13.41;68.46;93209.34;5128008;27;20027;-81
2021/04/03 12:01:40;;;;;;;15.65;10.07;;;;;;;13.20;68.47;93213.03;5126657;27;20096;-81
2021/04/03 12:04:05;;;;;;;18.02;10.05;;;;;;;12.91;68.52;93205.41;5126617;27;20030;-81
2021/04/03 12:06:31;;;;;;;19.63;9.63;;;;;;;12.75;68.79;93189.34;5126617;27;20031;-82
2021/04/03 12:08:56;;;;;;;16.42;9.13;;;;;;;12.74;68.88;93190.44;5126424;27;20024;-81
2021/04/03 12:11:22;;;;;;;10.93;5.78;;;;;;;12.49;65.77;93184.44;5126445;27;20027;-81
2021/04/03 12:13:47;;;;;;;13.40;5.80;;;;;;;12.57;66.34;93178.94;5125927;27;20035;-81